createdAt,value
2018-07-13T00:00:56.765Z,19.30
2018-07-13T00:03:01.310Z,19.30
2018-07-13T00:05:06.407Z,19.30
2018-07-13T00:07:10.935Z,19.20
2018-07-13T00:09:15.335Z,19.20
2018-07-13T00:11:19.784Z,19.20
2018-07-13T00:13:24.293Z,19.10
2018-07-13T00:15:29.714Z,19.10
2018-07-13T00:17:34.255Z,19.10
2018-07-13T00:19:39.279Z,19.00
2018-07-13T00:21:43.786Z,19.00
2018-07-13T00:23:48.451Z,19.00
2018-07-13T00:25:53.100Z,18.90
2018-07-13T00:27:57.589Z,18.90
2018-07-13T00:30:02.024Z,18.90
2018-07-13T00:32:06.614Z,18.90
2018-07-13T00:34:11.139Z,18.80
2018-07-13T00:36:15.617Z,18.80
2018-07-13T00:38:20.094Z,18.80
2018-07-13T00:40:24.518Z,18.70
2018-07-13T00:42:29.063Z,18.70
2018-07-13T00:44:33.517Z,18.70
2018-07-13T00:46:37.976Z,18.70
2018-07-13T00:48:42.493Z,18.60
2018-07-13T00:50:46.937Z,18.60
2018-07-13T00:52:51.370Z,18.60
2018-07-13T00:54:55.807Z,18.50
2018-07-13T00:57:00.275Z,18.50
2018-07-13T00:59:07.046Z,18.50
2018-07-13T01:01:13.650Z,18.40
2018-07-13T01:03:21.195Z,18.40
2018-07-13T01:05:27.358Z,18.40
2018-07-13T01:07:33.238Z,18.30
2018-07-13T01:11:46.768Z,18.30
2018-07-13T01:13:53.027Z,18.30
2018-07-13T01:15:58.758Z,18.30
2018-07-13T01:18:07.745Z,18.20
2018-07-13T01:20:14.339Z,18.20
2018-07-13T01:22:23.560Z,18.20
2018-07-13T01:24:32.020Z,18.10
2018-07-13T01:28:44.816Z,18.10
2018-07-13T01:30:51.903Z,18.10
2018-07-13T01:33:01.447Z,18.00
2018-07-13T01:35:08.651Z,18.00
2018-07-13T01:37:16.611Z,18.00
2018-07-13T01:39:24.738Z,17.90
2018-07-13T01:41:29.355Z,17.90
2018-07-13T01:43:33.833Z,17.90
2018-07-13T01:45:38.337Z,17.90
2018-07-13T01:47:42.787Z,17.90
2018-07-13T01:49:47.229Z,17.80
2018-07-13T01:51:51.728Z,17.80
2018-07-13T01:53:56.213Z,17.80
2018-07-13T01:56:00.646Z,17.80
2018-07-13T01:58:05.226Z,17.70
2018-07-13T02:00:13.821Z,17.70
2018-07-13T02:02:18.398Z,17.70
2018-07-13T02:04:22.857Z,17.70
2018-07-13T02:06:27.365Z,17.60
2018-07-13T02:08:33.008Z,17.60
2018-07-13T02:10:40.338Z,17.60
2018-07-13T02:12:47.692Z,17.50
2018-07-13T02:14:53.967Z,17.50
2018-07-13T02:16:59.731Z,17.50
2018-07-13T02:19:08.904Z,17.50
2018-07-13T02:21:15.889Z,17.50
2018-07-13T02:23:23.073Z,17.50
2018-07-13T02:25:27.726Z,17.40
2018-07-13T02:27:32.550Z,17.40
2018-07-13T02:29:37.047Z,17.40
2018-07-13T02:31:41.485Z,17.30
2018-07-13T02:35:50.151Z,17.30
2018-07-13T02:39:59.759Z,17.20
2018-07-13T02:42:04.276Z,17.20
2018-07-13T02:44:08.813Z,17.20
2018-07-13T02:46:13.262Z,17.20
2018-07-13T02:48:18.537Z,17.10
2018-07-13T02:50:22.939Z,17.10
2018-07-13T02:52:27.427Z,17.10
2018-07-13T02:54:31.904Z,17.10
2018-07-13T02:56:36.347Z,17.00
2018-07-13T02:58:40.840Z,17.00
2018-07-13T03:00:50.344Z,17.00
2018-07-13T03:02:57.129Z,17.00
2018-07-13T03:05:01.787Z,16.90
2018-07-13T03:07:06.413Z,16.90
2018-07-13T03:09:12.366Z,16.90
2018-07-13T03:11:16.846Z,16.90
2018-07-13T03:13:21.328Z,16.80
2018-07-13T03:15:25.811Z,16.80
2018-07-13T03:17:30.711Z,16.80
2018-07-13T03:19:35.204Z,16.80
2018-07-13T03:21:40.348Z,16.80
2018-07-13T03:23:44.830Z,16.70
2018-07-13T03:25:49.375Z,16.70
2018-07-13T03:27:53.771Z,16.70
2018-07-13T03:29:58.250Z,16.70
2018-07-13T03:32:02.748Z,16.70
2018-07-13T03:34:11.140Z,16.60
2018-07-13T03:36:17.648Z,16.60
2018-07-13T03:38:27.614Z,16.60
2018-07-13T03:40:35.717Z,16.50
2018-07-13T03:44:47.677Z,16.60
2018-07-13T03:46:53.470Z,16.50
2018-07-13T03:48:58.905Z,16.50
2018-07-13T03:51:04.470Z,16.50
2018-07-13T03:53:11.998Z,16.50
2018-07-13T03:55:20.555Z,16.50
2018-07-13T03:57:26.595Z,16.40
2018-07-13T03:59:33.089Z,16.40
2018-07-13T04:01:40.850Z,16.40
2018-07-13T04:03:46.362Z,16.40
2018-07-13T04:05:53.485Z,16.40
2018-07-13T04:07:59.274Z,16.40
2018-07-13T04:10:06.602Z,16.30
2018-07-13T04:12:13.262Z,16.30
2018-07-13T04:14:21.448Z,16.30
2018-07-13T04:16:25.972Z,16.30
2018-07-13T04:18:30.482Z,16.30
2018-07-13T04:20:35.111Z,16.30
2018-07-13T04:22:40.762Z,16.20
2018-07-13T04:24:45.391Z,16.40
2018-07-13T04:26:50.597Z,16.20
2018-07-13T04:28:55.445Z,16.20
2018-07-13T04:31:00.878Z,16.20
2018-07-13T04:33:05.472Z,16.20
2018-07-13T04:35:10.000Z,16.20
2018-07-13T04:37:14.475Z,16.20
2018-07-13T04:39:18.938Z,16.20
2018-07-13T04:41:23.511Z,16.20
2018-07-13T04:43:28.075Z,16.20
2018-07-13T04:45:32.619Z,16.20
2018-07-13T04:47:37.222Z,16.20
2018-07-13T04:49:41.806Z,16.20
2018-07-13T04:51:46.378Z,16.20
2018-07-13T04:53:55.190Z,16.30
2018-07-13T04:56:00.838Z,16.30
2018-07-13T04:58:05.479Z,16.30
2018-07-13T05:00:10.059Z,16.30
2018-07-13T05:02:16.472Z,16.30
2018-07-13T05:04:23.974Z,16.30
2018-07-13T05:06:28.543Z,16.40
2018-07-13T05:08:33.199Z,16.40
2018-07-13T05:10:37.718Z,16.40
2018-07-13T05:12:44.176Z,16.40
2018-07-13T05:14:50.231Z,16.40
2018-07-13T05:16:54.792Z,16.40
2018-07-13T05:18:59.261Z,16.50
2018-07-13T05:21:03.907Z,16.50
2018-07-13T05:23:08.531Z,16.50
2018-07-13T05:25:13.111Z,16.50
2018-07-13T05:27:17.703Z,16.50
2018-07-13T05:29:22.294Z,16.60
2018-07-13T05:31:26.872Z,16.60
2018-07-13T05:35:35.975Z,16.60
2018-07-13T05:37:41.194Z,16.70
2018-07-13T05:39:45.771Z,16.70
2018-07-13T05:41:50.302Z,16.70
2018-07-13T05:43:55.199Z,16.80
2018-07-13T05:46:00.123Z,16.80
2018-07-13T05:48:04.759Z,16.90
2018-07-13T05:50:09.339Z,16.90
2018-07-13T05:52:13.983Z,16.90
2018-07-13T05:54:18.690Z,17.00
2018-07-13T05:56:23.355Z,17.00
2018-07-13T05:58:27.919Z,17.10
2018-07-13T06:00:32.496Z,17.10
2018-07-13T06:02:37.138Z,17.20
2018-07-13T06:04:41.682Z,17.20
2018-07-13T06:08:50.970Z,17.30
2018-07-13T06:10:55.657Z,17.40
2018-07-13T06:13:01.611Z,17.50
2018-07-13T06:15:06.593Z,17.60
2018-07-13T06:17:11.226Z,17.60
2018-07-13T06:19:16.003Z,17.70
2018-07-13T06:21:21.550Z,17.80
2018-07-13T06:23:26.196Z,17.80
2018-07-13T06:25:30.874Z,17.90
2018-07-13T06:27:35.554Z,18.00
2018-07-13T06:29:42.295Z,18.10
2018-07-13T06:31:46.965Z,18.20
2018-07-13T06:33:51.510Z,18.30
2018-07-13T06:35:56.324Z,18.30
2018-07-13T06:38:01.528Z,18.40
2018-07-13T06:40:06.374Z,18.50
2018-07-13T06:42:10.898Z,18.60
2018-07-13T06:44:15.433Z,18.70
2018-07-13T06:46:19.911Z,18.80
2018-07-13T06:48:24.451Z,18.80
2018-07-13T06:50:29.030Z,18.90
2018-07-13T06:52:33.610Z,19.00
2018-07-13T06:54:38.108Z,19.10
2018-07-13T06:56:42.784Z,19.20
2018-07-13T06:59:08.835Z,19.30
2018-07-13T07:01:13.822Z,19.40
2018-07-13T07:03:18.403Z,19.50
2018-07-13T07:07:58.606Z,19.70
2018-07-13T07:10:03.303Z,19.80
2018-07-13T07:12:24.758Z,19.90
2018-07-13T07:14:29.210Z,20.00
2018-07-13T07:16:33.774Z,20.10
2018-07-13T07:18:38.452Z,20.10
2018-07-13T07:20:42.973Z,20.30
2018-07-13T07:24:52.163Z,20.50
2018-07-13T07:26:56.623Z,20.60
2018-07-13T07:29:01.779Z,20.70
2018-07-13T07:31:06.429Z,20.80
2018-07-13T07:33:10.894Z,20.90
2018-07-13T07:35:15.355Z,21.00
2018-07-13T07:37:19.891Z,21.10
2018-07-13T07:41:28.538Z,21.40
2018-07-13T07:43:33.206Z,21.50
2018-07-13T07:45:37.707Z,21.60
2018-07-13T07:47:42.243Z,21.70
2018-07-13T07:49:46.855Z,21.80
2018-07-13T07:51:51.436Z,21.90
2018-07-13T07:53:55.924Z,22.00
2018-07-13T07:56:00.363Z,22.10
2018-07-13T07:58:05.147Z,22.30
2018-07-13T08:00:09.630Z,22.40
2018-07-13T08:02:14.143Z,22.50
2018-07-13T08:04:18.724Z,22.60
2018-07-13T08:06:23.368Z,22.70
2018-07-13T08:08:27.799Z,22.80
2018-07-13T08:10:32.374Z,22.90
2018-07-13T08:12:37.191Z,23.00
2018-07-13T08:16:48.645Z,23.20
2018-07-13T08:18:53.264Z,23.30
2018-07-13T08:20:57.932Z,23.40
2018-07-13T08:23:09.723Z,23.50
2018-07-13T08:25:15.160Z,23.60
2018-07-13T08:27:22.750Z,23.70
2018-07-13T08:29:33.299Z,23.80
2018-07-13T08:31:37.802Z,23.90
2018-07-13T08:33:42.282Z,24.00
2018-07-13T08:35:46.746Z,24.10
2018-07-13T08:37:51.286Z,24.20
2018-07-13T08:39:55.802Z,24.30
2018-07-13T08:42:00.414Z,24.40
2018-07-13T08:44:05.249Z,24.50
2018-07-13T08:46:09.857Z,24.60
2018-07-13T08:48:14.387Z,24.70
2018-07-13T08:54:27.618Z,25.00
2018-07-13T08:56:32.243Z,25.10
2018-07-13T09:00:42.073Z,25.30
2018-07-13T09:02:46.581Z,25.30
2018-07-13T09:04:51.231Z,25.40
2018-07-13T09:06:55.778Z,25.50
2018-07-13T09:09:00.879Z,25.60
2018-07-13T09:11:05.538Z,25.70
2018-07-13T09:13:10.107Z,25.70
2018-07-13T09:17:19.164Z,25.90
2018-07-13T09:21:34.343Z,26.00
2018-07-13T09:23:38.994Z,26.10
2018-07-13T09:25:45.081Z,26.20
2018-07-13T09:27:49.758Z,26.20
2018-07-13T09:29:54.740Z,26.30
2018-07-13T09:32:04.537Z,26.30
2018-07-13T09:34:09.180Z,26.50
2018-07-13T09:36:13.893Z,26.50
2018-07-13T09:38:18.427Z,26.60
2018-07-13T09:40:23.466Z,26.60
2018-07-13T09:42:27.971Z,26.70
2018-07-13T09:44:32.934Z,26.80
2018-07-13T09:46:37.562Z,26.80
2018-07-13T09:48:42.763Z,26.90
2018-07-13T09:50:47.250Z,27.00
2018-07-13T09:52:51.802Z,27.10
2018-07-13T09:54:56.395Z,27.20
2018-07-13T09:57:02.142Z,27.20
2018-07-13T09:59:06.778Z,27.30
2018-07-13T10:01:16.671Z,27.30
2018-07-13T10:03:21.386Z,27.40
2018-07-13T10:05:26.056Z,27.50
2018-07-13T10:07:30.591Z,27.60
2018-07-13T10:09:35.208Z,27.60
2018-07-13T10:11:40.129Z,27.70
2018-07-13T10:13:44.920Z,27.70
2018-07-13T10:15:49.606Z,27.80
2018-07-13T10:17:54.169Z,27.80
2018-07-13T10:19:58.710Z,27.90
2018-07-13T10:22:03.363Z,27.90
2018-07-13T10:24:08.413Z,28.00
2018-07-13T10:26:18.891Z,28.00
2018-07-13T10:28:23.427Z,28.10
2018-07-13T10:30:27.986Z,28.10
2018-07-13T10:32:33.447Z,28.20
2018-07-13T10:34:38.163Z,28.20
2018-07-13T10:36:48.894Z,28.30
2018-07-13T10:38:54.152Z,28.30
2018-07-13T10:40:58.712Z,28.40
2018-07-13T10:43:03.560Z,28.40
2018-07-13T10:45:08.534Z,28.50
2018-07-13T10:47:13.150Z,28.50
2018-07-13T10:49:17.734Z,28.60
2018-07-13T10:51:23.114Z,28.60
2018-07-13T10:53:27.562Z,28.70
2018-07-13T10:55:32.115Z,28.80
2018-07-13T10:57:36.625Z,28.80
2018-07-13T10:59:41.056Z,28.90
2018-07-13T11:01:46.121Z,28.90
2018-07-13T11:03:50.837Z,29.00
2018-07-13T11:05:55.387Z,29.00
2018-07-13T11:07:59.835Z,29.10
2018-07-13T11:10:04.392Z,29.20
2018-07-13T11:12:08.954Z,29.30
2018-07-13T11:14:13.483Z,29.30
2018-07-13T11:16:17.930Z,29.40
2018-07-13T11:18:23.265Z,29.40
2018-07-13T11:20:27.818Z,29.50
2018-07-13T11:22:32.336Z,29.50
2018-07-13T11:24:36.771Z,29.60
2018-07-13T11:26:41.261Z,29.60
2018-07-13T11:28:45.754Z,29.70
2018-07-13T11:30:50.182Z,29.80
2018-07-13T11:32:54.670Z,29.70
2018-07-13T11:37:05.697Z,29.90
2018-07-13T11:39:10.026Z,29.90
2018-07-13T11:41:15.299Z,29.90
2018-07-13T11:43:19.795Z,30.00
2018-07-13T11:45:24.287Z,30.00
2018-07-13T11:47:28.726Z,30.10
2018-07-13T11:49:33.179Z,30.10
2018-07-13T11:51:37.910Z,30.10
2018-07-13T11:53:43.426Z,30.10
2018-07-13T11:55:48.933Z,30.20
2018-07-13T11:57:53.630Z,30.20
2018-07-13T11:59:58.300Z,30.20
2018-07-13T12:02:03.817Z,30.30
2018-07-13T12:04:08.438Z,30.40
2018-07-13T12:06:13.046Z,30.40
2018-07-13T12:08:17.748Z,30.50
2018-07-13T12:10:23.334Z,30.60
2018-07-13T12:12:28.369Z,30.60
2018-07-13T12:14:32.791Z,30.60
2018-07-13T12:16:37.546Z,30.70
2018-07-13T12:18:41.944Z,30.70
2018-07-13T12:20:46.654Z,30.80
2018-07-13T12:22:51.495Z,30.80
2018-07-13T12:24:59.760Z,30.90
2018-07-13T12:27:04.337Z,30.90
2018-07-13T12:29:08.951Z,31.00
2018-07-13T12:31:13.467Z,31.00
2018-07-13T12:33:17.990Z,31.00
2018-07-13T12:35:23.667Z,31.10
2018-07-13T12:37:28.414Z,31.10
2018-07-13T12:39:34.142Z,31.10
2018-07-13T12:41:39.216Z,31.20
2018-07-13T12:43:43.949Z,31.20
2018-07-13T12:45:48.573Z,31.20
2018-07-13T12:47:53.179Z,31.30
2018-07-13T12:49:57.682Z,31.30
2018-07-13T12:52:02.514Z,31.40
2018-07-13T12:54:07.697Z,31.40
2018-07-13T12:56:12.103Z,31.50
2018-07-13T12:58:16.579Z,31.50
2018-07-13T13:00:21.223Z,31.50
2018-07-13T13:02:25.676Z,31.60
2018-07-13T13:04:30.289Z,31.60
2018-07-13T13:06:35.115Z,31.60
2018-07-13T13:08:39.729Z,31.70
2018-07-13T13:10:44.291Z,31.70
2018-07-13T13:19:01.692Z,31.70
2018-07-13T13:21:06.526Z,31.70
2018-07-13T13:23:11.179Z,31.70
2018-07-13T13:25:15.902Z,31.70
2018-07-13T13:27:20.337Z,31.70
2018-07-13T13:29:25.222Z,31.80
2018-07-13T13:31:29.593Z,31.80
2018-07-13T13:33:34.179Z,31.80
2018-07-13T13:35:38.838Z,31.80
2018-07-13T13:37:44.273Z,31.80
2018-07-13T13:39:50.600Z,31.80
2018-07-13T13:41:55.498Z,31.80
2018-07-13T13:44:00.119Z,31.80
2018-07-13T13:46:06.470Z,31.80
2018-07-13T13:48:11.043Z,31.90
2018-07-13T13:50:15.543Z,31.90
2018-07-13T13:52:20.061Z,31.90
2018-07-13T13:54:24.575Z,32.00
2018-07-13T13:56:29.388Z,32.00
2018-07-13T13:58:33.990Z,32.10
2018-07-13T14:00:38.656Z,32.10
2018-07-13T14:02:44.275Z,32.10
2018-07-13T14:04:48.718Z,32.20
2018-07-13T14:06:53.318Z,32.20
2018-07-13T14:08:57.926Z,32.20
2018-07-13T14:11:02.435Z,32.20
2018-07-13T14:13:07.211Z,32.30
2018-07-13T14:15:11.805Z,32.20
2018-07-13T14:17:16.307Z,32.20
2018-07-13T14:19:20.902Z,32.30
2018-07-13T14:21:25.634Z,32.30
2018-07-13T14:23:30.215Z,32.30
2018-07-13T14:25:34.759Z,32.40
2018-07-13T14:27:39.428Z,32.40
2018-07-13T14:31:48.586Z,32.50
2018-07-13T14:33:53.066Z,32.50
2018-07-13T14:35:57.783Z,32.60
2018-07-13T14:38:02.513Z,32.50
2018-07-13T14:42:11.708Z,32.60
2018-07-13T14:44:16.768Z,32.70
2018-07-13T14:46:21.275Z,32.70
2018-07-13T14:48:25.716Z,32.80
2018-07-13T14:50:30.502Z,32.80
2018-07-13T14:52:35.056Z,32.80
2018-07-13T14:54:39.672Z,32.80
2018-07-13T14:56:44.495Z,32.80
2018-07-13T14:58:49.230Z,32.80
2018-07-13T15:00:53.835Z,32.80
2018-07-13T15:02:58.411Z,32.80
2018-07-13T15:07:08.372Z,32.80
2018-07-13T15:09:12.837Z,32.80
2018-07-13T15:13:22.172Z,32.80
2018-07-13T15:15:27.456Z,32.80
2018-07-13T15:17:32.155Z,32.80
2018-07-13T15:19:36.998Z,32.90
2018-07-13T15:21:42.057Z,32.90
2018-07-13T15:23:46.771Z,32.80
2018-07-13T15:25:51.312Z,32.80
2018-07-13T15:27:55.958Z,32.80
2018-07-13T15:30:00.411Z,32.80
2018-07-13T15:32:05.540Z,32.80
2018-07-13T15:34:10.462Z,32.80
2018-07-13T15:36:15.150Z,32.80
2018-07-13T15:38:19.757Z,32.80
2018-07-13T15:40:25.535Z,32.80
2018-07-13T15:44:34.410Z,32.80
2018-07-13T15:46:38.839Z,32.90
2018-07-13T15:48:43.282Z,32.90
2018-07-13T15:50:47.718Z,32.90
2018-07-13T15:55:01.714Z,33.00
2018-07-13T15:57:09.445Z,33.00
2018-07-13T15:59:16.704Z,32.90
2018-07-13T16:01:21.339Z,32.90
2018-07-13T16:03:25.911Z,32.90
2018-07-13T16:05:30.419Z,32.90
2018-07-13T16:07:34.895Z,32.90
2018-07-13T16:11:43.516Z,32.80
2018-07-13T16:13:47.960Z,32.80
2018-07-13T16:15:52.426Z,32.80
2018-07-13T16:17:57.389Z,32.70
2018-07-13T16:20:01.899Z,32.70
2018-07-13T16:22:06.392Z,32.60
2018-07-13T16:24:11.124Z,32.60
2018-07-13T16:26:15.582Z,32.60
2018-07-13T16:28:20.091Z,32.50
2018-07-13T16:32:29.864Z,32.20
2018-07-13T16:34:34.446Z,32.10
2018-07-13T16:36:38.935Z,32.00
2018-07-13T16:38:43.406Z,31.80
2018-07-13T16:40:47.875Z,31.60
2018-07-13T16:42:52.438Z,31.50
2018-07-13T16:44:57.090Z,31.40
2018-07-13T16:47:01.551Z,31.30
2018-07-13T16:49:06.220Z,31.10
2018-07-13T16:51:10.746Z,31.00
2018-07-13T16:53:15.202Z,30.90
2018-07-13T16:55:19.726Z,30.70
2018-07-13T16:57:24.170Z,30.60
2018-07-13T16:59:28.616Z,30.50
2018-07-13T17:01:33.063Z,30.40
2018-07-13T17:03:37.614Z,30.20
2018-07-13T17:05:42.124Z,30.20
2018-07-13T17:07:46.568Z,30.10
2018-07-13T17:09:51.038Z,30.00
2018-07-13T17:11:55.562Z,29.90
2018-07-13T17:14:00.054Z,29.80
2018-07-13T17:16:04.541Z,29.80
2018-07-13T17:18:08.993Z,29.70
2018-07-13T17:20:13.543Z,29.60
2018-07-13T17:22:18.039Z,29.60
2018-07-13T17:24:22.764Z,29.50
2018-07-13T17:26:27.328Z,29.40
2018-07-13T17:28:31.776Z,29.30
2018-07-13T17:30:36.947Z,29.20
2018-07-13T17:32:41.392Z,29.10
2018-07-13T17:34:46.796Z,29.10
2018-07-13T17:36:51.238Z,29.00
2018-07-13T17:38:55.678Z,28.90
2018-07-13T17:41:00.515Z,28.90
2018-07-13T17:43:05.045Z,28.80
2018-07-13T17:45:09.491Z,28.70
2018-07-13T17:47:14.647Z,28.70
2018-07-13T17:49:19.224Z,28.70
2018-07-13T17:51:23.730Z,28.60
2018-07-13T17:53:28.244Z,28.50
2018-07-13T17:55:32.722Z,28.50
2018-07-13T17:57:37.253Z,28.40
2018-07-13T17:59:41.719Z,28.30
2018-07-13T18:01:47.816Z,28.20
2018-07-13T18:03:52.271Z,28.10
2018-07-13T18:05:56.774Z,28.10
2018-07-13T18:08:01.245Z,27.90
2018-07-13T18:10:05.795Z,27.90
2018-07-13T18:12:10.207Z,27.80
2018-07-13T18:14:14.719Z,27.70
2018-07-13T18:16:19.157Z,27.60
2018-07-13T18:18:23.621Z,27.50
2018-07-13T18:20:28.068Z,27.40
2018-07-13T18:24:36.823Z,27.30
2018-07-13T18:26:41.665Z,27.20
2018-07-13T18:28:46.151Z,27.10
2018-07-13T18:30:50.675Z,27.10
2018-07-13T18:32:55.128Z,27.00
2018-07-13T18:34:59.602Z,26.90
2018-07-13T18:37:04.274Z,26.80
2018-07-13T18:41:20.882Z,26.70
2018-07-13T18:43:25.333Z,26.60
2018-07-13T18:45:30.959Z,26.50
2018-07-13T18:47:35.433Z,26.40
2018-07-13T18:49:39.954Z,26.40
2018-07-13T18:51:44.488Z,26.30
2018-07-13T18:53:49.015Z,26.20
2018-07-13T18:55:53.515Z,26.20
2018-07-13T18:57:57.994Z,26.10
2018-07-13T19:00:02.537Z,26.00
2018-07-13T19:02:08.362Z,25.90
2018-07-13T19:04:12.851Z,25.90
2018-07-13T19:06:17.486Z,25.80
2018-07-13T19:08:21.922Z,25.80
2018-07-13T19:10:26.366Z,25.70
2018-07-13T19:12:30.975Z,25.60
2018-07-13T19:14:35.437Z,25.50
2018-07-13T19:16:40.999Z,25.50
2018-07-13T19:18:45.402Z,25.40
2018-07-13T19:20:52.431Z,25.40
2018-07-13T19:22:57.826Z,25.30
2018-07-13T19:25:03.402Z,25.20
2018-07-13T19:27:08.628Z,25.10
2018-07-13T19:29:14.338Z,25.10
2018-07-13T19:33:25.213Z,25.00
2018-07-13T19:35:30.069Z,24.90
2018-07-13T19:37:35.079Z,24.90
2018-07-13T19:39:39.783Z,24.90
2018-07-13T19:41:44.710Z,24.80
2018-07-13T19:43:49.401Z,24.70
2018-07-13T19:45:54.975Z,24.70
2018-07-13T19:47:59.704Z,24.70
2018-07-13T19:52:09.040Z,24.50
2018-07-13T19:54:13.718Z,24.50
2018-07-13T19:56:18.226Z,24.40
2018-07-13T19:58:22.681Z,24.40
2018-07-13T20:00:27.114Z,24.30
2018-07-13T20:02:31.555Z,24.20
2018-07-13T20:04:36.406Z,24.20
2018-07-13T20:06:40.930Z,24.10
2018-07-13T20:08:45.370Z,24.10
2018-07-13T20:10:49.906Z,23.90
2018-07-13T20:12:54.429Z,23.90
2018-07-13T20:14:58.854Z,23.90
2018-07-13T20:17:03.985Z,23.80
2018-07-13T20:19:09.131Z,23.80
2018-07-13T20:23:17.721Z,23.70
2018-07-13T20:25:22.122Z,23.60
2018-07-13T20:29:30.735Z,23.50
2018-07-13T20:31:35.340Z,23.40
2018-07-13T20:33:39.794Z,23.30
2018-07-13T20:35:44.260Z,23.30
2018-07-13T20:37:49.386Z,23.30
2018-07-13T20:39:53.831Z,23.20
2018-07-13T20:41:58.361Z,23.10
2018-07-13T20:44:02.903Z,23.10
2018-07-13T20:46:07.470Z,23.10
2018-07-13T20:48:13.569Z,23.00
2018-07-13T20:50:18.048Z,22.90
2018-07-13T20:52:25.453Z,22.90
2018-07-13T20:54:32.229Z,22.90
2018-07-13T20:56:39.712Z,22.80
2018-07-13T20:58:46.064Z,22.70
2018-07-13T21:00:52.710Z,22.70
2018-07-13T21:03:00.179Z,22.60
2018-07-13T21:05:07.557Z,22.60
2018-07-13T21:07:14.903Z,22.50
2018-07-13T21:09:20.394Z,22.50
2018-07-13T21:11:26.706Z,22.40
2018-07-13T21:13:34.134Z,22.40
2018-07-13T21:15:39.290Z,22.30
2018-07-13T21:17:45.995Z,22.30
2018-07-13T21:19:52.070Z,22.20
2018-07-13T21:24:03.395Z,22.10
2018-07-13T21:26:09.099Z,22.00
2018-07-13T21:28:15.499Z,21.90
2018-07-13T21:30:21.758Z,21.90
2018-07-13T21:32:26.713Z,21.80
2018-07-13T21:34:32.258Z,21.80
2018-07-13T21:36:37.933Z,21.70
2018-07-13T21:38:43.792Z,21.70
2018-07-13T21:42:55.109Z,21.60
2018-07-13T21:45:01.129Z,21.60
2018-07-13T21:47:08.011Z,21.50
2018-07-13T21:49:12.664Z,21.50
2018-07-13T21:51:17.273Z,21.40
2018-07-13T21:55:25.994Z,21.30
2018-07-13T21:57:30.577Z,21.30
2018-07-13T22:01:39.496Z,21.20
2018-07-13T22:03:47.057Z,21.20
2018-07-13T22:05:54.336Z,21.10
2018-07-13T22:07:58.795Z,21.10
2018-07-13T22:10:03.342Z,21.00
2018-07-13T22:12:07.838Z,21.00
2018-07-13T22:14:12.306Z,20.90
2018-07-13T22:16:16.754Z,20.90
2018-07-13T22:18:21.187Z,20.80
2018-07-13T22:20:25.614Z,20.80
2018-07-13T22:22:30.773Z,20.80
2018-07-13T22:24:35.424Z,20.70
2018-07-13T22:26:40.419Z,20.70
2018-07-13T22:28:44.849Z,20.60
2018-07-13T22:30:49.530Z,20.60
2018-07-13T22:32:55.736Z,20.50
2018-07-13T22:35:01.471Z,20.50
2018-07-13T22:37:06.596Z,20.40
2018-07-13T22:41:16.693Z,20.30
2018-07-13T22:43:21.330Z,20.30
2018-07-13T22:45:25.815Z,20.30
2018-07-13T22:47:31.370Z,20.30
2018-07-13T22:49:35.898Z,20.20
2018-07-13T22:51:40.406Z,20.20
2018-07-13T22:53:44.866Z,20.10
2018-07-13T22:55:49.310Z,20.10
2018-07-13T22:57:53.802Z,20.00
2018-07-13T22:59:58.291Z,20.00
2018-07-13T23:02:02.746Z,20.00
2018-07-13T23:04:08.082Z,20.00
2018-07-13T23:06:12.851Z,19.90
2018-07-13T23:08:17.344Z,19.90
2018-07-13T23:10:22.462Z,19.80
2018-07-13T23:12:27.200Z,19.80
2018-07-13T23:16:35.786Z,19.70
2018-07-13T23:18:40.314Z,19.70
2018-07-13T23:20:44.781Z,19.60
2018-07-13T23:22:49.312Z,19.60
2018-07-13T23:24:53.892Z,19.60
2018-07-13T23:26:59.973Z,19.50
2018-07-13T23:29:04.479Z,19.50
2018-07-13T23:31:08.926Z,19.50
2018-07-13T23:33:13.579Z,19.50
2018-07-13T23:35:18.107Z,19.40
2018-07-13T23:37:24.406Z,19.40
2018-07-13T23:39:31.479Z,19.40
2018-07-13T23:41:35.934Z,19.40
2018-07-13T23:43:40.354Z,19.30
2018-07-13T23:45:45.371Z,19.30
2018-07-13T23:47:49.987Z,19.30
2018-07-13T23:52:01.573Z,19.20
2018-07-13T23:54:06.115Z,19.20
2018-07-13T23:56:11.135Z,19.10
2018-07-13T23:58:15.574Z,19.10
